YTEF/TEF METAR and TAF weather

Enter ICAO airport designator
Station Type Date Time Source
YTEF METAR 2022/01/07 15:30 UTC NOAA

YTEF 071530Z AUTO 21019G29KT 100V230 //// // ////// 22/// Q1012


Station Type Date Time Source
YTEF Decoded METAR 2022/01/07 15:30 UTC NOAA

Station name not available
Jan 07, 2022 - 10:30 AM EST / 2022.01.07 1530 UTC
Wind: from the SSW (210 degrees) at 22 MPH (19 KT) gusting to 33 MPH (29 KT) (direction variable):0
Temperature: 71 F (22 C)
Pressure (altimeter): 29.88 in. Hg (1012 hPa)
ob: YTEF 071530Z AUTO 21019G29KT 100V230 //// // ////// 22/// Q1012
cycle: 15

Station Type Date Time Source
YTEF TAF 2017/06/24 02:03 UTC NOAA

TAF TAF YTEF 240051Z 2402/2414 12005KT CAVOK
FM240500 33005KT 9999 -SHRA SCT060 BKN100

Example: see airport list